Time;durP1;ratioP1;P1;durP2;ratioP2;P2;SDS_P1;SDS_P2;PMS_P1;PMS_P2;Temp;Humidity;BMP_temperature;BMP_pressure;BME280_temperature;BME280_humidity;BME280_pressure;Samples;Min_cycle;Max_cycle;Signal;HPM_P1;HPM_P2
2023/01/22 00:01:11;;;;;;;36.13;19.33;;;;;;;;;;4984228;28;20022;-73
2023/01/22 00:03:36;;;;;;;35.43;19.40;;;;;;;;;;4985472;28;20268;-72
2023/01/22 00:06:01;;;;;;;33.83;18.67;;;;;;;;;;4985669;28;20051;-72
2023/01/22 00:08:29;;;;;;;37.57;19.00;;;;;;;;;;4985315;28;20108;-72
2023/01/22 00:10:54;;;;;;;33.90;19.17;;;;;;;;;;4984876;28;20027;-77
2023/01/22 00:13:21;;;;;;;34.73;18.47;;;;;;;;;;4966366;28;20030;-72
2023/01/22 00:15:46;;;;;;;32.23;19.10;;;;;;;;;;4963688;28;20221;-72
2023/01/22 00:18:12;;;;;;;30.57;18.10;;;;;;;;;;4965242;28;20031;-73
2023/01/22 00:20:37;;;;;;;35.17;19.37;;;;;;;;;;4964180;28;20026;-72
2023/01/22 00:23:03;;;;;;;34.17;19.27;;;;;;;;;;4963900;28;20573;-72
2023/01/22 00:25:31;;;;;;;32.30;18.27;;;;;;;;;;4965427;28;20031;-71
2023/01/22 00:27:56;;;;;;;32.22;17.60;;;;;;;;;;4984370;28;20114;-72
2023/01/22 00:30:21;;;;;;;30.20;17.83;;;;;;;;;;4985100;28;20109;-72
2023/01/22 00:32:47;;;;;;;30.47;17.57;;;;;;;;;;4984894;28;20475;-77
2023/01/22 00:35:12;;;;;;;29.90;17.93;;;;;;;;;;4985236;28;20256;-78
2023/01/22 00:37:38;;;;;;;27.67;15.73;;;;;;;;;;4988591;28;20097;-76
2023/01/22 00:40:04;;;;;;;24.40;14.90;;;;;;;;;;4982519;28;20037;-79
2023/01/22 00:42:29;;;;;;;31.13;16.70;;;;;;;;;;4984768;28;20113;-77
2023/01/22 00:44:55;;;;;;;27.13;15.50;;;;;;;;;;4984420;28;20041;-78
2023/01/22 00:47:20;;;;;;;25.50;15.33;;;;;;;;;;4998584;28;20034;-77
2023/01/22 00:49:45;;;;;;;27.47;16.60;;;;;;;;;;5001976;28;20129;-78
2023/01/22 00:52:13;;;;;;;27.57;15.67;;;;;;;;;;5003406;28;20564;-79
2023/01/22 00:54:38;;;;;;;30.67;15.03;;;;;;;;;;5002393;28;20026;-76
2023/01/22 00:57:03;;;;;;;26.87;13.97;;;;;;;;;;4990569;28;20053;-76
2023/01/22 00:59:29;;;;;;;21.95;14.20;;;;;;;;;;4984854;28;20065;-76
2023/01/22 01:01:54;;;;;;;23.23;15.03;;;;;;;;;;4982541;28;20038;-78
2023/01/22 01:04:20;;;;;;;24.03;13.93;;;;;;;;;;4966344;28;20070;-77
2023/01/22 01:06:45;;;;;;;21.53;13.50;;;;;;;;;;4982156;28;20038;-76
2023/01/22 01:09:10;;;;;;;21.20;13.80;;;;;;;;;;4983541;28;20633;-79
2023/01/22 01:11:36;;;;;;;20.10;12.50;;;;;;;;;;4982241;28;20027;-77
2023/01/22 01:14:01;;;;;;;21.50;13.17;;;;;;;;;;4984260;28;20480;-78
2023/01/22 01:16:29;;;;;;;19.37;12.23;;;;;;;;;;4983930;28;20113;-76
2023/01/22 01:19:02;;;;;;;19.17;11.43;;;;;;;;;;4982311;28;20181;-71
2023/01/22 01:21:27;;;;;;;18.13;12.40;;;;;;;;;;4983810;28;20030;-71
2023/01/22 01:23:55;;;;;;;21.63;13.30;;;;;;;;;;4965908;28;20034;-71
2023/01/22 01:26:23;;;;;;;20.00;12.83;;;;;;;;;;4983935;28;20077;-71
2023/01/22 01:28:51;;;;;;;19.30;12.43;;;;;;;;;;4983530;28;20101;-71
2023/01/22 01:31:17;;;;;;;17.90;11.00;;;;;;;;;;4981493;28;20034;-71
2023/01/22 01:33:43;;;;;;;20.38;12.68;;;;;;;;;;4966035;28;20399;-71
2023/01/22 01:36:12;;;;;;;21.20;11.43;;;;;;;;;;4981489;28;20038;-73
2023/01/22 01:38:38;;;;;;;18.85;12.57;;;;;;;;;;4983361;28;20070;-71
2023/01/22 01:41:06;;;;;;;20.23;12.17;;;;;;;;;;4983351;28;20031;-71
2023/01/22 01:43:33;;;;;;;19.60;11.63;;;;;;;;;;4983683;28;20376;-72
2023/01/22 01:45:58;;;;;;;22.47;11.50;;;;;;;;;;4984255;28;20157;-71
2023/01/22 01:48:24;;;;;;;23.60;12.32;;;;;;;;;;5003118;28;20514;-71
2023/01/22 01:50:58;;;;;;;16.73;11.75;;;;;;;;;;5002903;28;20398;-76
2023/01/22 01:53:24;;;;;;;16.53;11.07;;;;;;;;;;5003226;28;20030;-76
2023/01/22 01:55:49;;;;;;;16.17;11.68;;;;;;;;;;4984655;28;20033;-77
2023/01/22 01:58:20;;;;;;;19.77;12.77;;;;;;;;;;4981126;28;20022;-77
2023/01/22 02:00:46;;;;;;;17.45;11.20;;;;;;;;;;4982648;28;20026;-77
2023/01/22 02:03:12;;;;;;;17.30;11.50;;;;;;;;;;4982759;28;20116;-77
2023/01/22 02:05:37;;;;;;;17.38;10.77;;;;;;;;;;4982683;28;20499;-72
2023/01/22 02:08:03;;;;;;;16.10;10.48;;;;;;;;;;4982114;28;20026;-77
2023/01/22 02:10:29;;;;;;;15.75;11.05;;;;;;;;;;4980841;28;20165;-78
2023/01/22 02:12:56;;;;;;;18.13;11.38;;;;;;;;;;4983243;28;20102;-78
2023/01/22 02:15:26;;;;;;;16.25;11.15;;;;;;;;;;4981179;28;20157;-71
2023/01/22 02:17:54;;;;;;;15.65;10.73;;;;;;;;;;4983199;28;20026;-72
2023/01/22 02:20:19;;;;;;;14.60;10.40;;;;;;;;;;4981669;28;20027;-72
2023/01/22 02:22:44;;;;;;;15.60;10.98;;;;;;;;;;4980495;28;20035;-71
2023/01/22 02:25:10;;;;;;;18.48;11.05;;;;;;;;;;4982857;28;20117;-71
2023/01/22 02:27:35;;;;;;;15.82;10.68;;;;;;;;;;4982535;28;20054;-76
2023/01/22 02:30:03;;;;;;;15.65;10.85;;;;;;;;;;4965328;28;20400;-76
2023/01/22 02:32:31;;;;;;;15.77;9.95;;;;;;;;;;4982608;28;20262;-76
2023/01/22 02:34:56;;;;;;;15.00;10.13;;;;;;;;;;4980406;28;20049;-74
2023/01/22 02:37:22;;;;;;;15.57;9.93;;;;;;;;;;4982514;28;20105;-76
2023/01/22 02:39:47;;;;;;;14.37;10.00;;;;;;;;;;4982646;28;20045;-76
2023/01/22 02:42:13;;;;;;;13.50;9.45;;;;;;;;;;4982684;28;20034;-76
2023/01/22 02:44:38;;;;;;;13.73;9.73;;;;;;;;;;4981468;28;20670;-77
2023/01/22 02:47:03;;;;;;;14.57;10.32;;;;;;;;;;4994202;28;20026;-76
2023/01/22 02:49:28;;;;;;;16.02;10.23;;;;;;;;;;5002120;28;20061;-76
2023/01/22 02:51:54;;;;;;;15.77;10.30;;;;;;;;;;5001896;28;20438;-76
2023/01/22 02:54:19;;;;;;;17.02;10.60;;;;;;;;;;4985666;28;20471;-76
2023/01/22 02:56:44;;;;;;;16.58;10.93;;;;;;;;;;4982724;28;20053;-73
2023/01/22 02:59:10;;;;;;;17.15;11.38;;;;;;;;;;4982669;28;20035;-77
2023/01/22 03:01:35;;;;;;;16.38;11.20;;;;;;;;;;4982354;28;20030;-77
2023/01/22 03:04:09;;;;;;;18.00;11.60;;;;;;;;;;4982642;28;20498;-76
2023/01/22 03:06:35;;;;;;;17.63;11.48;;;;;;;;;;4982357;28;20042;-76
2023/01/22 03:09:00;;;;;;;18.10;11.65;;;;;;;;;;4983225;28;20044;-77
2023/01/22 03:11:27;;;;;;;19.80;11.93;;;;;;;;;;4981835;28;20081;-77
2023/01/22 03:22:07;;;;;;;16.27;10.73;;;;;;;;;;4985778;28;20041;-71
2023/01/22 03:24:35;;;;;;;17.55;11.35;;;;;;;;;;4983464;28;20038;-71
2023/01/22 03:27:00;;;;;;;16.60;11.25;;;;;;;;;;4983942;28;20027;-72
2023/01/22 03:29:26;;;;;;;14.88;10.52;;;;;;;;;;4985532;28;20129;-76
2023/01/22 03:31:51;;;;;;;16.48;10.93;;;;;;;;;;4985351;28;20038;-76
2023/01/22 03:34:18;;;;;;;15.88;10.57;;;;;;;;;;4986104;28;20042;-72
2023/01/22 03:36:43;;;;;;;18.52;10.38;;;;;;;;;;4986421;28;20144;-77
2023/01/22 03:39:09;;;;;;;18.80;11.68;;;;;;;;;;4986078;28;20089;-76
2023/01/22 03:41:35;;;;;;;17.05;10.65;;;;;;;;;;5000046;28;20069;-76
2023/01/22 03:44:02;;;;;;;15.02;10.02;;;;;;;;;;4967492;28;20030;-76
2023/01/22 03:46:27;;;;;;;14.88;10.23;;;;;;;;;;4992394;28;20037;-76
2023/01/22 03:48:53;;;;;;;17.10;11.02;;;;;;;;;;5004639;28;20038;-77
2023/01/22 03:51:19;;;;;;;17.55;10.85;;;;;;;;;;5002334;28;20029;-76
2023/01/22 03:53:45;;;;;;;15.10;10.10;;;;;;;;;;4985779;28;20034;-77
2023/01/22 03:56:14;;;;;;;15.13;10.13;;;;;;;;;;4984103;28;20053;-76
2023/01/22 03:58:42;;;;;;;14.52;10.02;;;;;;;;;;4984940;28;20388;-76
2023/01/22 04:01:11;;;;;;;16.67;10.27;;;;;;;;;;4986192;28;20035;-77
2023/01/22 04:03:39;;;;;;;14.88;9.75;;;;;;;;;;4984637;28;20073;-76
2023/01/22 04:06:05;;;;;;;13.75;9.27;;;;;;;;;;4983677;28;20034;-77
2023/01/22 04:08:32;;;;;;;15.90;9.60;;;;;;;;;;4984861;28;20044;-77
2023/01/22 04:10:58;;;;;;;14.38;9.35;;;;;;;;;;4984533;28;20372;-76
2023/01/22 04:13:23;;;;;;;13.60;9.63;;;;;;;;;;4985205;28;20709;-72
2023/01/22 04:15:49;;;;;;;13.60;9.20;;;;;;;;;;4985425;28;20108;-70
2023/01/22 04:18:14;;;;;;;14.93;8.20;;;;;;;;;;4984610;28;20031;-73
2023/01/22 04:20:39;;;;;;;13.68;8.40;;;;;;;;;;4984899;28;20501;-71
2023/01/22 04:23:05;;;;;;;13.23;8.90;;;;;;;;;;4984384;28;20054;-76
2023/01/22 04:25:31;;;;;;;13.43;8.25;;;;;;;;;;4967246;28;20081;-76
2023/01/22 04:27:56;;;;;;;12.90;8.32;;;;;;;;;;4982849;28;20109;-76
2023/01/22 04:30:23;;;;;;;12.38;7.38;;;;;;;;;;4983368;28;20525;-76
2023/01/22 04:32:49;;;;;;;11.05;7.63;;;;;;;;;;4982631;28;20058;-77
2023/01/22 04:35:14;;;;;;;11.98;7.25;;;;;;;;;;4984986;28;20088;-76
2023/01/22 04:37:39;;;;;;;10.95;8.00;;;;;;;;;;4983637;28;20022;-71
2023/01/22 04:40:05;;;;;;;12.05;7.13;;;;;;;;;;4984641;28;20034;-71
2023/01/22 04:42:33;;;;;;;11.55;7.88;;;;;;;;;;4981994;28;20042;-71
2023/01/22 04:45:00;;;;;;;10.45;7.38;;;;;;;;;;4982228;28;20550;-72
2023/01/22 04:47:26;;;;;;;10.90;7.40;;;;;;;;;;4999070;28;20038;-71
2023/01/22 04:49:51;;;;;;;11.93;7.75;;;;;;;;;;5002861;28;20064;-72
2023/01/22 04:52:17;;;;;;;11.90;7.70;;;;;;;;;;4982172;28;20278;-71
2023/01/22 04:54:42;;;;;;;11.90;8.00;;;;;;;;;;4984957;28;20085;-76
2023/01/22 04:57:13;;;;;;;12.30;7.70;;;;;;;;;;4984051;28;20443;-77
2023/01/22 04:59:38;;;;;;;13.25;8.20;;;;;;;;;;4984089;28;20169;-77
2023/01/22 05:02:03;;;;;;;15.57;8.27;;;;;;;;;;4983973;28;20029;-76
2023/01/22 05:04:29;;;;;;;13.00;7.75;;;;;;;;;;4983622;28;20034;-75
2023/01/22 05:06:54;;;;;;;13.00;7.93;;;;;;;;;;4984089;28;20023;-76
2023/01/22 05:09:19;;;;;;;13.52;8.68;;;;;;;;;;4983625;28;20405;-76
2023/01/22 05:11:45;;;;;;;13.97;8.47;;;;;;;;;;4982043;28;20317;-76
2023/01/22 05:14:10;;;;;;;15.52;8.68;;;;;;;;;;4982596;28;20038;-76
2023/01/22 05:16:35;;;;;;;14.80;8.73;;;;;;;;;;4981952;28;20037;-76
2023/01/22 05:19:00;;;;;;;11.40;7.67;;;;;;;;;;4984051;28;20022;-72
2023/01/22 05:21:26;;;;;;;13.03;8.60;;;;;;;;;;4982369;28;20478;-76
2023/01/22 05:23:51;;;;;;;17.33;9.43;;;;;;;;;;4982828;28;20269;-75
2023/01/22 05:26:16;;;;;;;13.67;9.40;;;;;;;;;;4981863;28;20030;-76
2023/01/22 05:28:44;;;;;;;13.88;8.82;;;;;;;;;;4981838;28;20042;-77
2023/01/22 05:31:12;;;;;;;14.87;8.87;;;;;;;;;;4983216;28;20022;-76
2023/01/22 05:33:41;;;;;;;17.67;8.87;;;;;;;;;;4983103;28;20037;-75
2023/01/22 05:36:08;;;;;;;12.67;8.27;;;;;;;;;;4983317;28;20038;-77
2023/01/22 05:38:33;;;;;;;13.30;8.83;;;;;;;;;;4983264;28;20494;-77
2023/01/22 05:41:00;;;;;;;14.90;8.80;;;;;;;;;;4981499;28;20098;-75
2023/01/22 05:43:25;;;;;;;14.40;9.63;;;;;;;;;;4983797;28;20039;-77
2023/01/22 05:45:51;;;;;;;13.40;8.67;;;;;;;;;;4986202;28;20047;-77
2023/01/22 05:48:16;;;;;;;15.87;8.90;;;;;;;;;;5003020;28;20048;-77
2023/01/22 05:50:41;;;;;;;15.02;8.93;;;;;;;;;;4983666;28;20034;-78
2023/01/22 05:53:07;;;;;;;14.37;8.93;;;;;;;;;;4983300;28;20640;-72
2023/01/22 05:55:33;;;;;;;13.97;8.90;;;;;;;;;;4983168;28;20415;-72
2023/01/22 05:57:58;;;;;;;13.97;9.13;;;;;;;;;;4982883;28;20035;-72
2023/01/22 06:00:24;;;;;;;14.37;9.27;;;;;;;;;;4981308;28;20038;-72
2023/01/22 06:02:53;;;;;;;14.73;9.60;;;;;;;;;;4980834;28;20096;-72
2023/01/22 06:05:18;;;;;;;16.83;9.57;;;;;;;;;;4982594;28;20035;-73
2023/01/22 06:07:43;;;;;;;16.33;9.17;;;;;;;;;;4981693;28;20038;-71
2023/01/22 06:10:09;;;;;;;14.53;9.50;;;;;;;;;;4983609;28;20022;-72
2023/01/22 06:12:34;;;;;;;16.87;9.20;;;;;;;;;;4964879;28;20081;-71
2023/01/22 06:15:02;;;;;;;15.97;9.43;;;;;;;;;;4982762;28;20044;-71
2023/01/22 06:17:27;;;;;;;16.20;9.87;;;;;;;;;;4964940;28;20022;-72
2023/01/22 06:19:53;;;;;;;17.87;10.03;;;;;;;;;;4981587;28;20039;-72
2023/01/22 06:22:18;;;;;;;16.33;10.17;;;;;;;;;;4982575;28;20476;-72
2023/01/22 06:24:43;;;;;;;19.43;10.40;;;;;;;;;;4983212;28;20136;-77
2023/01/22 06:27:09;;;;;;;15.33;9.67;;;;;;;;;;4982200;28;20038;-77
2023/01/22 06:29:34;;;;;;;15.93;10.50;;;;;;;;;;4983106;28;20201;-78
2023/01/22 06:31:59;;;;;;;17.50;10.33;;;;;;;;;;4982115;28;20117;-76
2023/01/22 06:34:25;;;;;;;16.50;10.03;;;;;;;;;;4983576;28;20495;-77
2023/01/22 06:36:50;;;;;;;16.63;10.60;;;;;;;;;;4982796;28;20106;-77
2023/01/22 06:39:15;;;;;;;17.30;10.23;;;;;;;;;;4981347;28;20049;-77
2023/01/22 06:41:40;;;;;;;16.53;10.17;;;;;;;;;;4982711;28;20526;-74
2023/01/22 06:44:08;;;;;;;15.83;9.73;;;;;;;;;;4982971;28;20042;-77
2023/01/22 06:46:33;;;;;;;19.80;10.50;;;;;;;;;;4989506;28;20026;-77
2023/01/22 06:49:00;;;;;;;17.20;10.33;;;;;;;;;;4988217;28;20543;-77
2023/01/22 06:51:26;;;;;;;16.58;9.40;;;;;;;;;;4968472;28;20479;-77
2023/01/22 06:53:51;;;;;;;18.08;10.38;;;;;;;;;;4986754;28;20030;-71
2023/01/22 06:56:16;;;;;;;16.47;9.63;;;;;;;;;;4985005;28;20057;-73
2023/01/22 06:58:44;;;;;;;15.93;9.83;;;;;;;;;;4984995;28;20126;-72
2023/01/22 07:01:09;;;;;;;16.23;9.60;;;;;;;;;;4986659;28;20488;-77
2023/01/22 07:03:34;;;;;;;18.20;9.73;;;;;;;;;;4968658;28;20038;-72
2023/01/22 07:06:01;;;;;;;17.93;9.70;;;;;;;;;;4984564;28;20030;-72
2023/01/22 07:08:27;;;;;;;15.60;9.50;;;;;;;;;;4984500;28;20042;-72
2023/01/22 07:10:52;;;;;;;14.35;9.20;;;;;;;;;;4985349;28;20041;-76
2023/01/22 07:13:18;;;;;;;15.68;9.57;;;;;;;;;;4986279;28;20327;-77
2023/01/22 07:15:43;;;;;;;16.90;9.98;;;;;;;;;;4986056;28;20545;-76
2023/01/22 07:18:13;;;;;;;16.13;9.75;;;;;;;;;;4986551;28;20339;-71
2023/01/22 07:20:39;;;;;;;14.95;9.15;;;;;;;;;;4985716;28;20507;-72
2023/01/22 07:23:04;;;;;;;14.55;8.75;;;;;;;;;;4985948;28;20081;-73
2023/01/22 07:25:29;;;;;;;13.82;8.70;;;;;;;;;;4984085;28;20100;-72
2023/01/22 07:27:59;;;;;;;13.32;8.55;;;;;;;;;;4986483;28;20019;-72
2023/01/22 07:30:24;;;;;;;17.10;8.77;;;;;;;;;;4985456;28;20026;-72
2023/01/22 07:32:49;;;;;;;15.60;7.43;;;;;;;;;;4986405;28;20034;-72
2023/01/22 07:35:14;;;;;;;13.30;7.40;;;;;;;;;;4967499;28;20053;-72
2023/01/22 07:37:40;;;;;;;13.13;6.85;;;;;;;;;;4984242;28;20030;-71
2023/01/22 07:40:05;;;;;;;13.73;6.80;;;;;;;;;;4983105;28;20027;-71
2023/01/22 07:42:31;;;;;;;12.27;5.95;;;;;;;;;;4985856;28;20058;-77
2023/01/22 07:44:56;;;;;;;11.82;6.10;;;;;;;;;;4985660;28;20110;-75
2023/01/22 07:47:21;;;;;;;8.90;5.95;;;;;;;;;;4983991;28;20027;-77
2023/01/22 07:49:46;;;;;;;11.23;5.63;;;;;;;;;;4985718;28;20484;-76
2023/01/22 07:52:12;;;;;;;13.35;5.57;;;;;;;;;;4986340;28;20626;-72
2023/01/22 07:54:37;;;;;;;11.98;6.07;;;;;;;;;;4983961;28;21784;-71
2023/01/22 07:57:02;;;;;;;12.20;5.53;;;;;;;;;;4983114;28;20025;-72
2023/01/22 07:59:28;;;;;;;12.45;5.50;;;;;;;;;;4985561;28;20089;-71
2023/01/22 08:01:54;;;;;;;8.90;5.38;;;;;;;;;;4985115;28;20030;-72
2023/01/22 08:04:19;;;;;;;10.75;5.78;;;;;;;;;;4983930;28;20494;-72
2023/01/22 08:06:44;;;;;;;8.82;5.28;;;;;;;;;;4985085;28;20029;-72
2023/01/22 08:09:10;;;;;;;11.25;5.43;;;;;;;;;;4984497;28;20038;-73
2023/01/22 08:11:35;;;;;;;9.95;6.10;;;;;;;;;;4985137;28;20140;-76
2023/01/22 08:14:00;;;;;;;11.80;5.95;;;;;;;;;;4967470;28;20122;-73
2023/01/22 08:16:25;;;;;;;9.93;5.95;;;;;;;;;;4985568;28;20045;-71
2023/01/22 08:18:51;;;;;;;10.93;6.22;;;;;;;;;;4983268;28;20117;-73
2023/01/22 08:21:18;;;;;;;9.85;5.70;;;;;;;;;;4985377;28;20502;-72
2023/01/22 08:23:43;;;;;;;11.88;6.22;;;;;;;;;;4984522;28;20027;-73
2023/01/22 08:26:09;;;;;;;13.20;6.50;;;;;;;;;;4984316;28;20241;-73
2023/01/22 08:28:35;;;;;;;11.27;5.90;;;;;;;;;;4983373;28;20038;-73
2023/01/22 08:31:04;;;;;;;13.02;6.60;;;;;;;;;;4985511;28;20474;-72
2023/01/22 08:33:31;;;;;;;12.80;6.35;;;;;;;;;;4965551;28;20031;-72
2023/01/22 08:35:58;;;;;;;10.65;6.38;;;;;;;;;;4966064;28;20135;-72
2023/01/22 08:38:24;;;;;;;10.63;5.82;;;;;;;;;;4963832;28;20121;-71
2023/01/22 08:40:52;;;;;;;11.57;5.90;;;;;;;;;;4996258;28;20488;-74
2023/01/22 08:43:17;;;;;;;9.23;5.43;;;;;;;;;;4967176;28;20142;-76
2023/01/22 08:45:43;;;;;;;9.88;6.22;;;;;;;;;;4966767;28;20114;-72
2023/01/22 08:48:09;;;;;;;9.32;6.05;;;;;;;;;;4985259;28;20645;-73
2023/01/22 08:50:36;;;;;;;11.02;6.07;;;;;;;;;;4984574;28;20027;-71
2023/01/22 08:53:02;;;;;;;13.48;6.55;;;;;;;;;;4983139;28;23330;-73
2023/01/22 08:55:27;;;;;;;11.13;6.47;;;;;;;;;;5003783;28;20050;-72
2023/01/22 08:57:54;;;;;;;11.48;6.20;;;;;;;;;;5003675;28;20024;-72
2023/01/22 09:00:19;;;;;;;11.60;5.88;;;;;;;;;;5003285;28;20097;-72
2023/01/22 09:02:45;;;;;;;12.35;6.53;;;;;;;;;;4986454;28;20548;-73
2023/01/22 09:05:10;;;;;;;9.60;5.85;;;;;;;;;;5004245;28;20022;-72
2023/01/22 09:07:35;;;;;;;12.68;6.25;;;;;;;;;;5004037;28;20109;-70
2023/01/22 09:10:00;;;;;;;11.00;6.00;;;;;;;;;;5002291;28;20061;-72
2023/01/22 09:12:26;;;;;;;11.70;6.47;;;;;;;;;;5003755;28;20075;-72
2023/01/22 09:14:51;;;;;;;10.60;6.95;;;;;;;;;;5003784;28;20121;-72
2023/01/22 09:17:16;;;;;;;11.07;6.18;;;;;;;;;;5003475;28;20100;-71
2023/01/22 09:19:42;;;;;;;11.00;6.00;;;;;;;;;;5002031;28;20456;-72
2023/01/22 09:22:09;;;;;;;8.68;6.05;;;;;;;;;;5002081;28;20026;-75
2023/01/22 09:24:35;;;;;;;9.38;5.90;;;;;;;;;;5005019;28;20030;-76
2023/01/22 09:27:00;;;;;;;9.43;6.55;;;;;;;;;;5002599;28;20050;-74
2023/01/22 09:29:28;;;;;;;9.90;6.05;;;;;;;;;;5004616;28;20601;-77
2023/01/22 09:31:53;;;;;;;10.95;6.43;;;;;;;;;;5002225;28;20391;-75
2023/01/22 09:34:21;;;;;;;13.88;6.55;;;;;;;;;;5004378;28;20030;-75
2023/01/22 09:36:46;;;;;;;10.15;6.40;;;;;;;;;;5003488;28;20029;-74
2023/01/22 09:39:12;;;;;;;10.23;6.20;;;;;;;;;;5002222;28;20397;-74
2023/01/22 09:41:41;;;;;;;11.15;6.07;;;;;;;;;;5003153;28;20570;-74
2023/01/22 09:44:13;;;;;;;11.68;6.43;;;;;;;;;;5001613;28;20487;-74
2023/01/22 09:46:48;;;;;;;10.32;7.35;;;;;;;;;;5000636;28;20449;-76
2023/01/22 09:49:18;;;;;;;11.02;6.60;;;;;;;;;;5003139;28;20387;-75
2023/01/22 09:51:52;;;;;;;10.80;5.85;;;;;;;;;;5001411;28;20022;-75
2023/01/22 09:54:18;;;;;;;16.02;6.30;;;;;;;;;;5003796;28;20022;-77
2023/01/22 09:56:45;;;;;;;10.63;6.18;;;;;;;;;;5004413;28;20155;-75
2023/01/22 09:59:15;;;;;;;12.88;6.40;;;;;;;;;;5004562;28;20069;-75
2023/01/22 10:01:42;;;;;;;13.93;6.47;;;;;;;;;;5001370;28;20033;-72
2023/01/22 10:04:18;;;;;;;8.52;6.00;;;;;;;;;;5001309;28;20367;-71
2023/01/22 10:06:44;;;;;;;9.55;5.75;;;;;;;;;;5000873;28;20037;-72
2023/01/22 10:09:09;;;;;;;10.30;5.90;;;;;;;;;;5001239;28;20036;-71
2023/01/22 10:11:38;;;;;;;9.52;5.97;;;;;;;;;;5002469;28;20026;-72
2023/01/22 10:14:06;;;;;;;10.70;5.80;;;;;;;;;;5002637;28;20033;-71
2023/01/22 10:16:31;;;;;;;10.65;6.05;;;;;;;;;;5001266;28;20030;-72
2023/01/22 10:19:15;;;;;;;9.05;5.80;;;;;;;;;;5000992;28;20073;-72
2023/01/22 10:21:45;;;;;;;8.77;5.68;;;;;;;;;;5005938;28;20029;-72
2023/01/22 10:24:11;;;;;;;9.48;5.75;;;;;;;;;;5004995;28;20025;-72
2023/01/22 10:26:48;;;;;;;9.45;6.00;;;;;;;;;;5005665;28;20512;-74
2023/01/22 10:29:20;;;;;;;9.00;5.43;;;;;;;;;;5007071;28;20034;-71
2023/01/22 10:31:46;;;;;;;11.02;5.75;;;;;;;;;;5004905;28;20499;-72
2023/01/22 10:34:13;;;;;;;10.85;6.55;;;;;;;;;;5005057;28;20022;-73
2023/01/22 10:36:38;;;;;;;8.98;5.65;;;;;;;;;;5006303;28;20216;-72
2023/01/22 10:39:07;;;;;;;9.32;5.85;;;;;;;;;;5006579;28;20379;-72
2023/01/22 10:41:32;;;;;;;10.43;5.85;;;;;;;;;;5006193;28;20034;-72
2023/01/22 10:44:27;;;;;;;14.75;5.72;;;;;;;;;;5006709;28;20061;-72
2023/01/22 10:47:05;;;;;;;9.35;5.60;;;;;;;;;;5003424;28;20084;-72
2023/01/22 10:49:30;;;;;;;8.65;5.20;;;;;;;;;;5004789;28;20073;-72
2023/01/22 10:51:57;;;;;;;8.32;5.50;;;;;;;;;;5005102;28;20438;-72
2023/01/22 10:54:22;;;;;;;10.80;5.47;;;;;;;;;;5005626;28;20033;-74
2023/01/22 10:56:49;;;;;;;14.48;6.00;;;;;;;;;;5007450;28;20037;-74
2023/01/22 10:59:25;;;;;;;11.80;5.50;;;;;;;;;;5007389;28;20034;-74
2023/01/22 11:02:01;;;;;;;11.57;5.80;;;;;;;;;;5007868;28;20467;-74
2023/01/22 11:04:26;;;;;;;8.40;5.28;;;;;;;;;;5009464;28;20072;-75
2023/01/22 11:06:54;;;;;;;9.93;5.55;;;;;;;;;;5008290;28;20038;-75
2023/01/22 11:09:25;;;;;;;7.43;4.88;;;;;;;;;;5007566;28;20490;-73
2023/01/22 11:12:07;;;;;;;8.38;5.40;;;;;;;;;;5005958;28;20083;-73
2023/01/22 11:14:34;;;;;;;11.18;5.70;;;;;;;;;;5004697;28;20038;-73
2023/01/22 11:17:14;;;;;;;9.43;5.45;;;;;;;;;;5004606;28;20030;-73
2023/01/22 11:19:42;;;;;;;8.05;5.20;;;;;;;;;;5005757;28;20022;-73
2023/01/22 11:22:22;;;;;;;10.10;5.82;;;;;;;;;;5004023;28;20022;-73
2023/01/22 11:24:48;;;;;;;10.32;5.45;;;;;;;;;;5003905;28;20422;-74
2023/01/22 11:27:23;;;;;;;11.63;6.05;;;;;;;;;;5006003;28;20045;-74
2023/01/22 11:30:03;;;;;;;9.90;5.30;;;;;;;;;;5003606;28;20120;-73
2023/01/22 11:32:34;;;;;;;10.85;6.00;;;;;;;;;;5002741;28;20025;-72
2023/01/22 11:35:02;;;;;;;9.32;5.53;;;;;;;;;;5003285;28;20022;-72
2023/01/22 11:37:36;;;;;;;11.50;5.53;;;;;;;;;;5008790;28;20108;-74
2023/01/22 11:40:17;;;;;;;9.63;5.68;;;;;;;;;;5006985;28;20116;-76
2023/01/22 11:42:59;;;;;;;8.07;5.10;;;;;;;;;;5009933;28;20084;-74
2023/01/22 11:45:43;;;;;;;14.25;5.25;;;;;;;;;;5008179;28;20058;-75
2023/01/22 11:48:14;;;;;;;7.78;4.97;;;;;;;;;;5009723;28;20067;-74
2023/01/22 11:50:45;;;;;;;8.88;5.20;;;;;;;;;;5008310;28;20029;-75
2023/01/22 11:53:17;;;;;;;7.70;4.95;;;;;;;;;;5007816;28;20029;-75
2023/01/22 11:55:48;;;;;;;9.52;5.28;;;;;;;;;;5009269;28;20506;-75
2023/01/22 11:58:13;;;;;;;12.52;5.30;;;;;;;;;;5007798;28;20105;-75
2023/01/22 12:00:50;;;;;;;7.65;5.10;;;;;;;;;;5009627;28;20240;-75
2023/01/22 12:03:43;;;;;;;9.23;4.90;;;;;;;;;;5008947;28;20057;-74
2023/01/22 12:06:12;;;;;;;11.10;5.28;;;;;;;;;;5009461;28;20018;-76
2023/01/22 12:08:43;;;;;;;7.30;4.72;;;;;;;;;;5007273;28;20030;-75
2023/01/22 12:11:08;;;;;;;6.95;4.80;;;;;;;;;;5008873;28;20061;-74
2023/01/22 12:13:41;;;;;;;10.57;4.95;;;;;;;;;;5009774;28;20025;-76
2023/01/22 12:16:20;;;;;;;8.27;5.15;;;;;;;;;;5008831;28;20105;-76
2023/01/22 12:19:03;;;;;;;7.07;5.00;;;;;;;;;;5007521;28;20357;-74
2023/01/22 12:21:28;;;;;;;6.85;5.20;;;;;;;;;;5008712;28;20033;-74
2023/01/22 12:23:57;;;;;;;8.85;5.22;;;;;;;;;;5009335;28;20018;-75
2023/01/22 12:26:25;;;;;;;8.65;4.50;;;;;;;;;;5008969;28;20026;-76
2023/01/22 12:28:58;;;;;;;9.07;5.22;;;;;;;;;;5008619;28;20038;-74
2023/01/22 12:31:27;;;;;;;8.88;4.82;;;;;;;;;;5008682;28;20117;-74
2023/01/22 12:33:52;;;;;;;6.80;4.70;;;;;;;;;;5008418;28;20479;-74
2023/01/22 12:36:22;;;;;;;6.95;4.78;;;;;;;;;;5008908;28;20106;-74
2023/01/22 12:38:53;;;;;;;8.68;5.00;;;;;;;;;;5006524;28;20057;-75
2023/01/22 12:41:21;;;;;;;9.48;5.45;;;;;;;;;;5005332;28;20034;-73
2023/01/22 12:44:03;;;;;;;7.35;4.88;;;;;;;;;;5003959;28;20030;-72
2023/01/22 12:46:28;;;;;;;6.35;4.55;;;;;;;;;;4999433;28;20028;-74
2023/01/22 12:48:56;;;;;;;10.75;5.32;;;;;;;;;;5004347;28;20034;-72
2023/01/22 12:51:24;;;;;;;8.52;5.97;;;;;;;;;;5004131;28;20107;-73
2023/01/22 12:53:49;;;;;;;8.43;5.28;;;;;;;;;;5004377;28;20033;-73
2023/01/22 12:56:29;;;;;;;9.30;5.30;;;;;;;;;;5004437;28;20018;-72
2023/01/22 12:58:55;;;;;;;8.98;5.90;;;;;;;;;;5003918;28;20026;-72
2023/01/22 13:01:22;;;;;;;8.80;5.70;;;;;;;;;;5006601;28;20021;-75
2023/01/22 13:04:01;;;;;;;8.00;5.15;;;;;;;;;;5007705;28;20077;-73
2023/01/22 13:06:38;;;;;;;8.25;5.38;;;;;;;;;;5006228;28;20045;-74
2023/01/22 13:09:22;;;;;;;8.45;5.43;;;;;;;;;;5007554;28;20532;-73
2023/01/22 13:11:47;;;;;;;8.73;5.35;;;;;;;;;;5007809;28;20022;-75
2023/01/22 13:14:27;;;;;;;10.02;5.63;;;;;;;;;;5003469;28;20048;-72
2023/01/22 13:16:58;;;;;;;13.38;8.60;;;;;;;;;;5004230;28;20080;-73
2023/01/22 13:19:37;;;;;;;7.90;5.38;;;;;;;;;;5007656;28;20034;-73
2023/01/22 13:22:03;;;;;;;10.98;5.93;;;;;;;;;;5007776;28;20030;-74
2023/01/22 13:24:28;;;;;;;9.07;5.60;;;;;;;;;;5006195;28;20453;-73
2023/01/22 13:26:55;;;;;;;9.40;5.78;;;;;;;;;;5007389;28;20030;-74
2023/01/22 13:29:21;;;;;;;10.90;6.40;;;;;;;;;;5005414;28;20045;-74
2023/01/22 13:31:50;;;;;;;8.82;5.93;;;;;;;;;;5005996;28;20444;-73
2023/01/22 13:34:18;;;;;;;9.68;5.90;;;;;;;;;;5005592;28;20026;-72
2023/01/22 13:36:44;;;;;;;10.20;5.90;;;;;;;;;;5005521;28;20109;-73
2023/01/22 13:39:20;;;;;;;9.93;5.97;;;;;;;;;;5005505;28;20100;-73
2023/01/22 13:41:50;;;;;;;9.88;5.40;;;;;;;;;;5006569;28;20112;-74
2023/01/22 13:44:22;;;;;;;8.82;5.43;;;;;;;;;;5006780;28;20113;-74
2023/01/22 13:46:48;;;;;;;9.50;5.30;;;;;;;;;;5006363;28;20034;-74
2023/01/22 13:49:16;;;;;;;9.90;5.53;;;;;;;;;;5006880;28;20239;-74
2023/01/22 13:51:42;;;;;;;11.07;5.90;;;;;;;;;;5007233;28;20026;-74
2023/01/22 13:54:12;;;;;;;14.85;6.10;;;;;;;;;;5007061;28;20422;-74
2023/01/22 13:56:37;;;;;;;12.63;5.82;;;;;;;;;;5004363;28;20057;-74
2023/01/22 13:59:06;;;;;;;8.75;5.78;;;;;;;;;;5007146;28;20033;-75
2023/01/22 14:01:33;;;;;;;11.07;6.05;;;;;;;;;;5007065;28;20049;-75
2023/01/22 14:04:00;;;;;;;12.18;6.50;;;;;;;;;;5006996;28;20027;-74
2023/01/22 14:06:25;;;;;;;9.63;6.28;;;;;;;;;;5006778;28;20038;-74
2023/01/22 14:08:52;;;;;;;10.35;5.97;;;;;;;;;;5006455;28;20037;-74
2023/01/22 14:11:18;;;;;;;11.85;6.22;;;;;;;;;;5001731;28;20479;-72
2023/01/22 14:13:45;;;;;;;9.32;5.93;;;;;;;;;;5003207;28;20033;-72
2023/01/22 14:16:10;;;;;;;11.40;6.43;;;;;;;;;;5002594;28;20022;-72
2023/01/22 14:18:36;;;;;;;11.85;6.63;;;;;;;;;;4984790;28;20022;-72
2023/01/22 14:21:02;;;;;;;11.18;7.28;;;;;;;;;;5000651;28;20026;-72
2023/01/22 14:23:27;;;;;;;12.80;8.15;;;;;;;;;;5001450;28;20026;-73
2023/01/22 14:25:53;;;;;;;28.80;14.93;;;;;;;;;;5000542;28;20029;-72
2023/01/22 14:28:20;;;;;;;17.95;8.77;;;;;;;;;;5002800;28;20526;-72
2023/01/22 14:30:45;;;;;;;31.23;15.80;;;;;;;;;;5002939;28;20029;-72
2023/01/22 14:33:17;;;;;;;23.48;13.32;;;;;;;;;;5002893;28;20022;-73
2023/01/22 14:35:42;;;;;;;17.35;10.80;;;;;;;;;;5002925;28;20034;-72
2023/01/22 14:38:07;;;;;;;14.55;9.27;;;;;;;;;;5002910;28;20030;-73